Time;durP1;ratioP1;P1;durP2;ratioP2;P2;SDS_P1;SDS_P2;PMS_P1;PMS_P2;Temp;Humidity;BMP_temperature;BMP_pressure;BME280_temperature;BME280_humidity;BME280_pressure;Samples;Min_cycle;Max_cycle;Signal;HPM_P1;HPM_P2
2022/04/11 00:01:28;;;;;;;17.17;16.20;;;;;;;7.60;100.00;101530.88;2000308;71;32908;-79
2022/04/11 00:07:12;;;;;;;18.37;17.33;;;;;;;7.69;100.00;101527.16;2014963;71;32917;-78
2022/04/11 00:13:04;;;;;;;20.73;19.57;;;;;;;7.47;100.00;101526.20;1998844;71;32867;-70
2022/04/11 00:18:48;;;;;;;22.70;21.23;;;;;;;7.49;100.00;101526.77;2000990;71;32856;-79
2022/04/11 00:24:32;;;;;;;23.07;21.67;;;;;;;7.39;100.00;101524.69;2016687;71;32830;-77
2022/04/11 00:30:16;;;;;;;23.93;22.40;;;;;;;7.44;100.00;101513.72;2007825;71;33462;-73
2022/04/11 00:36:01;;;;;;;24.27;22.77;;;;;;;7.43;100.00;101501.53;2011354;71;33326;-70
2022/04/11 00:41:45;;;;;;;25.03;23.20;;;;;;;7.36;100.00;101494.75;2016455;71;32826;-78
2022/04/11 00:47:29;;;;;;;24.63;23.07;;;;;;;7.32;100.00;101494.95;2007830;71;32836;-78
2022/04/11 00:53:15;;;;;;;26.20;24.60;;;;;;;7.35;100.00;101482.59;2013372;71;32872;-78
2022/04/11 00:59:03;;;;;;;27.90;26.00;;;;;;;7.27;100.00;101472.78;2009591;71;33008;-69
2022/04/11 01:04:47;;;;;;;29.43;27.33;;;;;;;7.09;100.00;101475.20;2011157;71;32812;-78
2022/04/11 01:10:31;;;;;;;31.00;29.10;;;;;;;7.02;100.00;101465.36;2002917;71;32829;-75
2022/04/11 01:16:17;;;;;;;31.67;29.67;;;;;;;7.11;100.00;101453.68;1997114;71;32751;-79
2022/04/11 01:22:01;;;;;;;34.10;31.93;;;;;;;7.24;100.00;101436.80;2007641;71;32875;-69
2022/04/11 01:27:47;;;;;;;35.83;33.33;;;;;;;7.37;100.00;101429.27;2004078;71;33233;-69
2022/04/11 01:33:32;;;;;;;36.73;34.23;;;;;;;7.41;100.00;101427.68;2013037;71;32810;-70
2022/04/11 01:39:16;;;;;;;36.00;33.53;;;;;;;7.59;100.00;101414.46;2005942;71;32873;-70
2022/04/11 01:45:01;;;;;;;36.90;34.33;;;;;;;7.67;100.00;101411.27;2006070;71;33422;-78
2022/04/11 01:50:45;;;;;;;36.40;34.10;;;;;;;7.69;100.00;101397.20;2002024;71;32826;-78
2022/04/11 01:56:30;;;;;;;37.20;34.63;;;;;;;7.59;100.00;101396.48;2005570;71;33297;-78
2022/04/11 02:02:15;;;;;;;38.37;36.03;;;;;;;7.63;100.00;101405.95;2004337;71;33283;-70
2022/04/11 02:08:00;;;;;;;40.27;37.67;;;;;;;7.61;100.00;101410.08;1999850;71;32880;-69
2022/04/11 02:13:44;;;;;;;41.27;38.50;;;;;;;7.52;100.00;101402.75;2013199;71;32890;-78
2022/04/11 02:19:28;;;;;;;42.33;39.20;;;;;;;7.38;100.00;101390.88;2016871;71;32905;-76
2022/04/11 02:25:12;;;;;;;45.20;42.33;;;;;;;7.37;100.00;101385.89;2000698;71;33374;-77
2022/04/11 02:30:56;;;;;;;50.30;47.20;;;;;;;7.44;100.00;101379.67;2012749;71;32833;-70
2022/04/11 02:36:40;;;;;;;50.90;47.80;;;;;;;7.33;100.00;101372.28;2007996;71;33343;-77
2022/04/11 02:42:25;;;;;;;54.80;51.27;;;;;;;7.19;100.00;101375.08;1995191;71;32768;-69
2022/04/11 02:48:10;;;;;;;55.30;51.90;;;;;;;7.30;100.00;101372.80;1995139;71;32805;-79
2022/04/11 02:53:54;;;;;;;58.83;54.93;;;;;;;7.16;100.00;101367.30;2018324;71;32897;-78
2022/04/11 02:59:38;;;;;;;59.53;56.13;;;;;;;7.21;100.00;101350.27;2002443;71;32733;-69
2022/04/11 03:05:23;;;;;;;59.73;55.97;;;;;;;7.21;100.00;101347.51;2017091;71;32854;-76
2022/04/11 03:11:07;;;;;;;61.40;57.73;;;;;;;7.21;100.00;101354.95;2005761;71;32873;-69
2022/04/11 03:16:51;;;;;;;60.37;56.30;;;;;;;7.10;100.00;101353.93;2003863;71;32910;-78
2022/04/11 03:22:35;;;;;;;63.33;59.53;;;;;;;7.02;100.00;101357.64;2014716;71;32810;-78
2022/04/11 03:28:22;;;;;;;62.33;58.53;;;;;;;7.06;100.00;101356.09;2004225;71;32797;-69
2022/04/11 03:34:06;;;;;;;65.20;61.00;;;;;;;6.89;100.00;101362.13;1998844;71;32843;-79
2022/04/11 03:39:50;;;;;;;67.00;62.83;;;;;;;6.91;100.00;101348.90;1992101;71;33393;-79
2022/04/11 03:45:34;;;;;;;66.63;62.20;;;;;;;6.94;100.00;101350.61;2002495;71;32776;-70
2022/04/11 03:51:20;;;;;;;65.67;61.50;;;;;;;6.90;100.00;101342.53;2011986;71;33247;-69
2022/04/11 03:57:04;;;;;;;65.57;61.33;;;;;;;6.91;100.00;101330.95;1964926;72;32883;-77
2022/04/11 04:02:48;;;;;;;66.77;62.27;;;;;;;6.83;100.00;101312.33;2016890;70;32829;-79
2022/04/11 04:08:33;;;;;;;67.03;62.43;;;;;;;6.87;100.00;101301.63;2011262;71;32809;-69
2022/04/11 04:14:17;;;;;;;66.23;61.87;;;;;;;6.94;100.00;101308.34;1996710;71;32753;-69
2022/04/11 04:20:01;;;;;;;68.00;63.40;;;;;;;6.92;100.00;101315.52;2011433;71;32918;-69
2022/04/11 04:25:46;;;;;;;67.30;62.80;;;;;;;7.06;100.00;101307.75;1995372;71;32779;-78
2022/04/11 04:31:30;;;;;;;66.67;62.20;;;;;;;6.90;100.00;101299.73;2000753;71;32872;-77
2022/04/11 04:37:14;;;;;;;68.47;63.73;;;;;;;6.73;100.00;101309.38;2000166;71;32905;-69
2022/04/11 04:42:58;;;;;;;67.10;62.27;;;;;;;6.56;100.00;101305.75;2006349;71;32777;-68
2022/04/11 04:48:42;;;;;;;68.97;64.10;;;;;;;6.86;100.00;101302.16;2011851;71;32827;-78
2022/04/11 04:54:26;;;;;;;70.17;65.37;;;;;;;6.94;100.00;101282.11;2016829;71;32963;-68
2022/04/11 05:00:13;;;;;;;66.70;62.00;;;;;;;6.92;100.00;101271.34;1999088;71;32877;-78
2022/04/11 05:05:59;;;;;;;70.40;65.47;;;;;;;7.00;100.00;101262.62;2010000;71;32812;-78
2022/04/11 05:11:44;;;;;;;70.00;64.97;;;;;;;7.06;100.00;101253.89;2015094;71;33298;-77
2022/04/11 05:17:28;;;;;;;69.33;64.20;;;;;;;7.11;100.00;101237.37;2004458;71;33424;-76
2022/04/11 05:23:12;;;;;;;67.60;62.63;;;;;;;7.07;100.00;101240.34;2009278;71;32932;-78
2022/04/11 05:28:57;;;;;;;67.80;63.10;;;;;;;7.16;100.00;101230.01;2000332;71;32896;-69
2022/04/11 05:34:41;;;;;;;68.57;63.90;;;;;;;7.21;100.00;101207.98;2006210;71;32911;-77
2022/04/11 05:40:25;;;;;;;68.53;63.83;;;;;;;7.38;100.00;101208.48;2011620;71;32839;-79
2022/04/11 05:46:10;;;;;;;68.77;64.17;;;;;;;7.37;100.00;101204.88;2005831;71;32993;-78
2022/04/11 05:51:55;;;;;;;67.57;62.70;;;;;;;7.44;100.00;101219.91;2006222;71;32891;-77
2022/04/11 05:57:40;;;;;;;67.03;62.60;;;;;;;7.43;100.00;101231.52;2014862;71;33064;-69
2022/04/11 06:03:25;;;;;;;67.97;63.60;;;;;;;7.36;100.00;101228.07;2002544;71;32994;-79
2022/04/11 06:09:09;;;;;;;69.27;64.67;;;;;;;7.36;100.00;101213.45;2018751;71;32837;-73
2022/04/11 06:14:55;;;;;;;66.33;62.00;;;;;;;7.46;100.00;101207.50;2016754;71;32799;-70
2022/04/11 06:20:39;;;;;;;65.90;61.67;;;;;;;7.59;100.00;101189.69;2008275;71;33205;-69
2022/04/11 06:26:23;;;;;;;67.30;62.87;;;;;;;7.83;100.00;101189.70;2016468;71;32820;-78
2022/04/11 06:32:09;;;;;;;64.47;60.37;;;;;;;8.10;100.00;101178.12;2013263;71;33019;-80
2022/04/11 06:37:53;;;;;;;61.80;57.10;;;;;;;8.32;100.00;101172.56;1997526;71;32731;-76
2022/04/11 06:43:37;;;;;;;60.07;56.37;;;;;;;8.59;100.00;101164.23;2006089;71;32749;-70
2022/04/11 06:49:21;;;;;;;62.23;58.47;;;;;;;8.78;100.00;101168.78;2018864;71;32874;-77
2022/04/11 06:55:07;;;;;;;62.10;58.17;;;;;;;8.90;100.00;101152.83;1995302;71;32870;-77
2022/04/11 07:00:51;;;;;;;59.90;56.10;;;;;;;8.94;100.00;101147.84;2009554;71;33388;-70
2022/04/11 07:06:35;;;;;;;61.27;57.50;;;;;;;8.91;100.00;101149.77;2000736;71;32787;-75
2022/04/11 07:12:20;;;;;;;61.83;57.93;;;;;;;8.96;100.00;101152.58;2011534;71;33254;-79
2022/04/11 07:18:04;;;;;;;59.67;56.03;;;;;;;9.16;100.00;101157.41;1961706;72;32888;-71
2022/04/11 07:23:48;;;;;;;56.33;52.70;;;;;;;9.46;100.00;101133.16;1999308;71;32805;-78
2022/04/11 07:29:32;;;;;;;55.20;52.10;;;;;;;9.52;100.00;101112.67;2006155;71;33329;-75
2022/04/11 07:35:16;;;;;;;51.03;48.03;;;;;;;9.80;100.00;101103.03;2009505;71;32872;-70
2022/04/11 07:41:01;;;;;;;51.57;48.57;;;;;;;9.97;100.00;101101.69;1995430;71;32778;-71
2022/04/11 07:46:47;;;;;;;52.77;49.77;;;;;;;10.26;100.00;101100.66;1997041;71;32758;-68
2022/04/11 07:52:31;;;;;;;36.27;34.07;;;;;;;10.56;100.00;101087.87;2013211;71;32836;-74
2022/04/11 07:58:18;;;;;;;31.50;29.77;;;;;;;10.92;100.00;101095.02;2000368;71;32995;-71
2022/04/11 08:04:02;;;;;;;25.20;23.97;;;;;;;11.17;100.00;101074.09;2013364;71;32874;-78
2022/04/11 08:09:46;;;;;;;17.80;16.90;;;;;;;11.46;100.00;101055.34;2007690;71;32825;-71
2022/04/11 08:15:36;;;;;;;15.50;14.60;;;;;;;11.87;100.00;101051.22;2016566;71;32954;-70
2022/04/11 08:21:21;;;;;;;13.40;12.70;;;;;;;12.30;100.00;101064.81;2004362;71;32893;-72
2022/04/11 08:27:07;;;;;;;12.20;11.50;;;;;;;12.63;100.00;101068.13;2016864;71;32819;-76
2022/04/11 08:32:53;;;;;;;13.03;12.17;;;;;;;12.80;100.00;101083.00;2008370;71;33187;-72
2022/04/11 08:38:38;;;;;;;11.93;11.43;;;;;;;13.02;100.00;101073.56;2015142;71;33356;-79
2022/04/11 08:44:25;;;;;;;11.57;10.97;;;;;;;12.97;100.00;101047.13;1997251;70;33246;-79
2022/04/11 08:50:12;;;;;;;11.97;11.37;;;;;;;12.96;100.00;101031.55;2018705;71;32831;-76
2022/04/11 08:55:57;;;;;;;11.30;10.70;;;;;;;13.27;100.00;101038.98;1994310;71;33363;-71
2022/04/11 09:01:42;;;;;;;12.13;11.43;;;;;;;13.46;100.00;101020.33;1941270;74;33439;-70
2022/04/11 09:07:27;;;;;;;12.70;12.00;;;;;;;13.36;100.00;101019.06;2009838;71;33383;-75
2022/04/11 09:13:15;;;;;;;13.17;12.47;;;;;;;13.56;100.00;101006.20;2013406;71;33306;-73
2022/04/11 09:19:01;;;;;;;13.20;12.10;;;;;;;13.79;100.00;100993.30;2017659;71;32827;-70
2022/04/11 09:24:49;;;;;;;12.93;12.13;;;;;;;14.09;100.00;100970.47;2009353;71;32795;-76
2022/04/11 09:30:44;;;;;;;12.97;12.17;;;;;;;14.39;100.00;100969.69;2000023;71;33345;-78
2022/04/11 09:36:48;;;;;;;12.43;11.83;;;;;;;14.19;100.00;100970.86;1996446;71;32792;-70
2022/04/11 09:42:36;;;;;;;11.60;11.10;;;;;;;14.50;100.00;100950.20;2000271;70;32852;-77
2022/04/11 09:48:24;;;;;;;12.07;11.53;;;;;;;14.68;100.00;100931.66;2003503;71;32814;-72
2022/04/11 09:54:34;;;;;;;11.80;11.20;;;;;;;14.51;100.00;100935.90;1994099;71;32926;-77
2022/04/11 10:00:20;;;;;;;12.00;11.40;;;;;;;14.65;100.00;100912.15;2009460;70;32823;-71
2022/04/11 10:06:07;;;;;;;12.30;11.60;;;;;;;14.67;100.00;100904.30;2012624;71;32883;-70
2022/04/11 10:11:55;;;;;;;11.43;10.93;;;;;;;14.81;100.00;100891.11;2000068;71;32896;-78
2022/04/11 10:17:50;;;;;;;11.80;11.30;;;;;;;15.12;100.00;100895.47;2008762;71;33348;-73
2022/04/11 10:26:56;;;;;;;11.73;11.13;;;;;;;15.15;100.00;100851.45;2045233;69;32671;-70
2022/04/11 10:29:36;;;;;;;12.13;11.53;;;;;;;15.37;100.00;100854.28;2010957;70;26202;-69
2022/04/11 10:32:12;;;;;;;12.10;11.47;;;;;;;15.60;100.00;100845.36;2008823;70;26747;-69
2022/04/11 10:35:02;;;;;;;12.37;11.67;;;;;;;15.59;99.56;100840.06;2013131;70;26226;-76
2022/04/11 10:37:56;;;;;;;12.40;11.57;;;;;;;15.61;95.54;100836.39;2026195;70;26673;-76
2022/04/11 10:40:31;;;;;;;12.13;11.43;;;;;;;15.66;97.50;100838.46;1931804;73;26292;-69
2022/04/11 10:43:18;;;;;;;11.77;11.27;;;;;;;15.63;99.81;100821.48;1943093;73;26183;-71
2022/04/11 10:45:59;;;;;;;12.27;11.53;;;;;;;15.80;100.00;100815.41;1933892;73;26781;-77
2022/04/11 10:49:05;;;;;;;13.17;12.40;;;;;;;16.06;98.76;100818.91;1937232;74;26191;-68
2022/04/11 10:51:34;;;;;;;12.03;11.43;;;;;;;16.10;99.32;100822.16;1966201;72;26238;-77
2022/04/11 10:54:19;;;;;;;12.23;11.53;;;;;;;15.77;96.61;100806.27;1938152;73;26853;-79
2022/04/11 10:56:55;;;;;;;11.97;11.37;;;;;;;15.90;100.00;100846.53;1901092;74;26293;-78
2022/04/11 11:03:09;;;;;;;12.10;11.40;;;;;;;16.27;98.73;100862.03;2005686;71;33097;-71
2022/04/11 11:08:55;;;;;;;12.30;11.70;;;;;;;16.51;95.99;100853.24;1991010;70;32791;-71
2022/04/11 11:14:43;;;;;;;12.20;11.60;;;;;;;16.43;97.24;100838.62;2008660;71;32830;-77
2022/04/11 11:20:34;;;;;;;12.13;11.63;;;;;;;16.58;98.84;100825.00;1996560;71;32874;-77
2022/04/11 11:26:40;;;;;;;12.07;11.57;;;;;;;16.28;94.75;100846.31;2007711;71;32764;-78
2022/04/11 11:32:31;;;;;;;14.90;13.37;;;;;;;16.66;96.40;100843.83;2016116;71;33405;-77
2022/04/11 11:38:17;;;;;;;12.67;11.97;;;;;;;16.61;91.25;100835.56;1995103;71;32829;-71
2022/04/11 11:44:15;;;;;;;12.40;11.80;;;;;;;16.79;94.83;100824.63;2011154;71;32895;-78
2022/04/11 11:50:12;;;;;;;11.73;11.23;;;;;;;16.50;88.72;100813.16;2007179;71;32826;-78
2022/04/11 11:56:04;;;;;;;12.53;11.83;;;;;;;16.56;90.09;100797.81;2017730;71;32851;-76
2022/04/11 12:04:18;;;;;;;12.40;11.80;;;;;;;16.54;88.36;100790.32;2011393;70;32812;-71
2022/04/11 12:07:40;;;;;;;12.87;12.27;;;;;;;16.68;87.42;100780.41;1957748;72;32961;-76
2022/04/11 12:13:26;;;;;;;12.50;11.80;;;;;;;16.60;88.67;100761.59;1991040;70;32817;-76
2022/04/11 12:19:23;;;;;;;12.40;11.80;;;;;;;16.73;90.65;100750.19;2000830;71;32904;-78
2022/04/11 12:25:25;;;;;;;13.20;12.60;;;;;;;16.79;92.33;100751.70;1999994;71;32832;-77
2022/04/11 12:28:18;;;;;;;12.33;11.63;;;;;;;16.73;91.56;100756.38;1984770;72;26820;-74
2022/04/11 12:34:13;;;;;;;12.13;11.53;;;;;;;16.65;92.81;100753.81;1940420;74;32971;-69
2022/04/11 12:40:13;;;;;;;13.00;12.40;;;;;;;16.76;96.73;100769.77;2003217;71;32888;-78
2022/04/11 12:46:07;;;;;;;12.80;12.17;;;;;;;17.02;94.58;100762.19;1994773;71;33293;-70
2022/04/11 12:52:11;;;;;;;12.87;12.17;;;;;;;17.41;94.64;100751.91;2000847;71;31274;-70
2022/04/11 12:58:06;;;;;;;13.00;12.20;;;;;;;17.17;94.22;100729.39;1980271;72;31066;-76
2022/04/11 13:03:52;;;;;;;12.70;12.10;;;;;;;17.36;98.60;100715.58;2013476;71;32824;-71
2022/04/11 13:09:37;;;;;;;18.07;17.27;;;;;;;17.34;94.70;100694.84;1994832;71;32851;-71
2022/04/11 13:15:26;;;;;;;13.40;12.43;;;;;;;17.32;97.80;100690.16;2010151;71;32914;-71
2022/04/11 13:21:10;;;;;;;12.67;11.97;;;;;;;17.48;95.61;100679.20;2014605;71;32983;-76
2022/04/11 13:27:01;;;;;;;12.13;11.53;;;;;;;17.39;92.28;100673.61;2017837;71;33531;-71
2022/04/11 13:32:45;;;;;;;12.90;12.10;;;;;;;17.37;92.61;100661.08;1998416;71;32991;-71
2022/04/11 13:38:29;;;;;;;13.30;12.60;;;;;;;17.74;95.17;100647.06;1998590;71;32852;-72
2022/04/11 13:44:15;;;;;;;13.80;12.70;;;;;;;17.54;92.26;100644.16;2018815;71;30881;-78
2022/04/11 13:50:00;;;;;;;13.40;12.70;;;;;;;17.49;96.98;100622.70;2003470;71;31458;-71
2022/04/11 13:55:45;;;;;;;13.43;12.73;;;;;;;17.51;96.96;100612.52;2002353;71;32870;-77
2022/04/11 14:01:29;;;;;;;12.50;11.90;;;;;;;17.65;93.57;100599.94;2005391;71;32839;-77
2022/04/11 14:07:13;;;;;;;13.57;12.83;;;;;;;17.78;92.44;100604.23;2007886;71;30935;-73
2022/04/11 14:12:58;;;;;;;13.50;12.80;;;;;;;17.86;91.96;100599.97;2016468;70;32949;-72
2022/04/11 14:18:42;;;;;;;13.83;13.03;;;;;;;18.09;88.69;100605.53;2005878;71;30851;-77
2022/04/11 14:24:27;;;;;;;13.73;13.07;;;;;;;18.36;91.19;100598.52;2007566;71;30887;-72
2022/04/11 14:30:12;;;;;;;14.33;13.43;;;;;;;18.31;90.49;100592.30;2005726;71;30927;-79
2022/04/11 14:35:51;;;;;;;13.77;13.07;;;;;;;18.12;92.63;100614.68;1883953;72;33057;-73
2022/04/11 14:38:23;;;;;;;13.80;13.10;;;;;;;18.02;91.15;100605.81;1852776;76;27210;-77
2022/04/11 14:40:54;;;;;;;14.40;13.50;;;;;;;17.97;91.77;100591.38;1852694;76;26707;-73
2022/04/11 14:43:26;;;;;;;14.00;13.30;;;;;;;17.97;93.91;100596.20;1852126;76;24663;-73
2022/04/11 14:45:58;;;;;;;14.03;13.23;;;;;;;17.91;93.21;100604.58;1813218;77;24320;-74
2022/04/11 14:48:31;;;;;;;13.73;12.63;;;;;;;17.80;93.71;100589.28;1850124;76;26447;-78
2022/04/11 14:51:01;;;;;;;14.20;13.30;;;;;;;17.79;94.88;100590.44;1854139;76;26844;-73
2022/04/11 14:53:32;;;;;;;13.13;12.43;;;;;;;17.76;95.27;100593.33;1811013;76;26372;-75
2022/04/11 14:59:18;;;;;;;13.80;12.90;;;;;;;17.80;94.80;100578.05;2009313;71;32897;-73
2022/04/11 15:05:03;;;;;;;13.87;13.07;;;;;;;17.77;97.87;100583.75;2014097;71;32843;-70
2022/04/11 15:10:47;;;;;;;14.03;13.00;;;;;;;17.65;100.00;100571.84;1990913;71;32866;-70
2022/04/11 15:16:32;;;;;;;14.73;13.87;;;;;;;17.43;100.00;100582.50;1999864;70;30848;-79
2022/04/11 15:22:21;;;;;;;14.77;13.97;;;;;;;17.40;100.00;100564.93;2007037;71;32987;-70
2022/04/11 15:28:07;;;;;;;14.23;13.50;;;;;;;17.43;100.00;100558.05;2001214;71;30979;-73
2022/04/11 15:33:52;;;;;;;14.90;14.00;;;;;;;17.43;100.00;100558.63;2006291;71;30833;-76
2022/04/11 15:39:37;;;;;;;14.83;14.07;;;;;;;17.44;100.00;100557.47;2007990;71;31011;-77
2022/04/11 15:45:24;;;;;;;15.00;14.10;;;;;;;17.48;100.00;100573.31;2009290;71;33333;-69
2022/04/11 15:51:09;;;;;;;15.03;14.23;;;;;;;17.62;100.00;100562.70;2004617;71;33314;-78
2022/04/11 15:56:54;;;;;;;16.10;15.00;;;;;;;17.68;100.00;100559.92;1951515;71;31012;-71
2022/04/11 16:02:38;;;;;;;16.60;15.43;;;;;;;17.46;100.00;100548.11;2016754;71;32898;-69
2022/04/11 16:08:24;;;;;;;16.57;15.47;;;;;;;17.40;100.00;100550.89;2014535;71;32880;-70
2022/04/11 16:14:09;;;;;;;16.40;15.40;;;;;;;17.33;100.00;100561.23;2005932;70;32782;-69
2022/04/11 16:19:55;;;;;;;16.83;15.67;;;;;;;17.23;100.00;100563.03;2016638;71;33008;-78
2022/04/11 16:25:41;;;;;;;17.07;15.77;;;;;;;17.23;100.00;100560.22;2013464;71;32909;-71
2022/04/11 16:31:25;;;;;;;16.77;15.67;;;;;;;17.31;100.00;100564.97;2013221;71;32973;-70
2022/04/11 16:37:09;;;;;;;17.70;16.60;;;;;;;17.30;100.00;100563.31;2011802;71;30894;-76
2022/04/11 16:42:57;;;;;;;16.10;14.90;;;;;;;17.36;100.00;100552.16;2004378;71;30942;-69
2022/04/11 16:48:42;;;;;;;16.87;15.77;;;;;;;17.38;100.00;100537.18;1991265;71;32860;-70
2022/04/11 16:54:26;;;;;;;16.93;15.83;;;;;;;17.29;100.00;100536.40;2006170;71;30969;-79
2022/04/11 17:00:13;;;;;;;16.00;15.00;;;;;;;17.04;100.00;100545.17;2016561;71;32964;-78
2022/04/11 17:05:57;;;;;;;17.13;15.87;;;;;;;16.95;100.00;100553.38;2015192;71;33335;-74
2022/04/11 17:11:42;;;;;;;16.43;15.40;;;;;;;16.91;100.00;100561.64;2011958;71;32772;-78
2022/04/11 17:23:28;;;;;;;16.87;15.77;;;;;;;16.76;100.00;100548.17;2011840;71;32878;-73
2022/04/11 17:29:14;;;;;;;15.77;14.67;;;;;;;16.68;100.00;100553.22;2007851;71;32901;-77
2022/04/11 17:34:59;;;;;;;16.37;15.27;;;;;;;16.75;100.00;100536.13;2002406;71;32922;-77
2022/04/11 17:40:43;;;;;;;17.57;16.47;;;;;;;16.74;100.00;100542.05;2016783;71;32861;-77
2022/04/11 17:46:28;;;;;;;16.30;15.20;;;;;;;16.75;100.00;100537.53;2007864;71;32886;-74
2022/04/11 17:52:12;;;;;;;16.43;15.43;;;;;;;16.76;100.00;100525.73;1995403;71;33424;-80
2022/04/11 17:57:56;;;;;;;17.43;16.20;;;;;;;16.63;100.00;100519.17;1961544;72;33018;-73
2022/04/11 18:03:42;;;;;;;19.20;17.87;;;;;;;16.57;100.00;100509.81;2000882;71;32916;-75
2022/04/11 18:09:26;;;;;;;18.37;16.93;;;;;;;16.50;100.00;100514.55;2005875;71;32968;-79
2022/04/11 18:15:13;;;;;;;18.20;16.90;;;;;;;16.48;100.00;100530.03;2011390;71;32839;-77
2022/04/11 18:20:58;;;;;;;19.20;17.73;;;;;;;16.41;100.00;100513.73;2015279;71;33313;-76
2022/04/11 18:26:43;;;;;;;19.17;17.77;;;;;;;16.42;100.00;100511.76;2008027;71;32859;-78
2022/04/11 18:32:28;;;;;;;17.93;16.57;;;;;;;16.36;100.00;100518.94;2009423;71;32863;-74
2022/04/11 18:38:14;;;;;;;20.40;18.70;;;;;;;16.32;100.00;100528.33;2000012;71;32996;-75
2022/04/11 18:44:00;;;;;;;20.23;18.57;;;;;;;16.32;100.00;100534.77;1999224;71;32796;-76
2022/04/11 18:49:46;;;;;;;19.53;18.03;;;;;;;16.30;100.00;100539.07;2018795;71;33905;-79
2022/04/11 18:55:30;;;;;;;20.63;18.90;;;;;;;16.14;100.00;100546.30;2005921;71;33263;-74
2022/04/11 19:01:17;;;;;;;21.23;19.30;;;;;;;16.15;100.00;100547.97;1995017;71;33408;-76
2022/04/11 19:07:03;;;;;;;21.07;19.27;;;;;;;16.14;100.00;100546.30;2016881;71;32846;-74
2022/04/11 19:12:48;;;;;;;21.60;19.60;;;;;;;16.08;100.00;100551.84;2016751;71;32839;-76
2022/04/11 19:18:33;;;;;;;20.47;18.67;;;;;;;16.08;100.00;100555.47;2000458;71;32761;-77
2022/04/11 19:24:22;;;;;;;21.97;19.97;;;;;;;16.04;100.00;100562.06;2000615;71;32992;-79
2022/04/11 19:30:11;;;;;;;21.67;19.73;;;;;;;15.99;100.00;100563.05;2006185;71;32929;-75
2022/04/11 19:35:55;;;;;;;22.73;20.63;;;;;;;16.04;100.00;100565.69;2017193;71;32828;-77
2022/04/11 19:41:43;;;;;;;22.53;20.53;;;;;;;16.02;100.00;100566.59;2016673;71;32898;-80
2022/04/11 19:53:30;;;;;;;22.80;20.70;;;;;;;16.00;100.00;100556.30;2002549;71;32769;-77
2022/04/11 19:59:15;;;;;;;23.83;21.43;;;;;;;15.90;100.00;100553.80;2007678;71;32871;-75
2022/04/11 20:04:59;;;;;;;22.40;20.30;;;;;;;15.94;100.00;100552.00;1999020;70;33290;-74
2022/04/11 20:10:43;;;;;;;22.77;20.57;;;;;;;15.92;100.00;100552.89;2009830;71;32770;-75
2022/04/11 20:16:27;;;;;;;22.87;20.67;;;;;;;15.86;100.00;100556.45;2013092;71;33324;-81
2022/04/11 20:22:12;;;;;;;23.97;21.60;;;;;;;15.93;100.00;100544.73;2007823;71;32854;-79
2022/04/11 20:27:57;;;;;;;23.10;20.97;;;;;;;15.88;100.00;100549.09;2000898;71;33339;-74
2022/04/11 20:33:42;;;;;;;22.57;20.47;;;;;;;15.88;100.00;100547.12;1997168;71;32769;-78
2022/04/11 20:39:28;;;;;;;23.40;21.20;;;;;;;15.84;100.00;100542.50;2008302;70;32840;-79
2022/04/11 20:45:14;;;;;;;22.23;20.23;;;;;;;15.80;100.00;100544.31;2007925;70;33363;-74
2022/04/11 20:51:02;;;;;;;22.63;20.50;;;;;;;15.79;100.00;100546.86;2002429;71;32766;-74
2022/04/11 20:56:46;;;;;;;22.90;20.80;;;;;;;15.78;100.00;100541.86;1954756;73;33110;-75
2022/04/11 21:02:29;;;;;;;21.23;19.40;;;;;;;15.76;100.00;100539.95;2007897;71;32940;-76
2022/04/11 21:08:22;;;;;;;21.30;19.50;;;;;;;15.67;100.00;100531.28;1992289;70;33621;-79
2022/04/11 21:14:07;;;;;;;22.10;19.77;;;;;;;15.51;100.00;100530.92;2008184;71;33283;-79
2022/04/11 21:19:54;;;;;;;22.90;20.60;;;;;;;15.54;100.00;100529.44;2016621;71;32841;-79
2022/04/11 21:25:39;;;;;;;21.50;19.53;;;;;;;15.53;100.00;100531.44;1998436;71;33369;-75
2022/04/11 21:31:25;;;;;;;20.80;19.00;;;;;;;15.59;100.00;100541.31;2014950;71;33436;-78
2022/04/11 21:37:10;;;;;;;22.00;20.03;;;;;;;15.42;100.00;100532.84;2016617;71;32832;-80
2022/04/11 21:42:54;;;;;;;21.27;19.37;;;;;;;15.35;100.00;100529.70;2004832;70;32814;-76
2022/04/11 21:48:39;;;;;;;20.60;18.80;;;;;;;15.30;100.00;100530.68;2013622;71;33321;-78
2022/04/11 21:54:24;;;;;;;21.37;19.57;;;;;;;15.18;100.00;100530.48;2009710;71;32917;-75
2022/04/11 22:00:17;;;;;;;20.67;18.90;;;;;;;15.06;100.00;100514.86;2018551;71;32932;-77
2022/04/11 22:06:02;;;;;;;19.20;17.50;;;;;;;15.23;100.00;100519.11;2006155;71;33333;-72
2022/04/11 22:11:46;;;;;;;20.43;18.73;;;;;;;15.18;100.00;100524.88;2016602;71;33502;-76
2022/04/11 22:17:31;;;;;;;19.97;18.37;;;;;;;15.11;100.00;100519.48;2018504;71;33352;-79
2022/04/11 22:23:16;;;;;;;21.17;19.47;;;;;;;14.99;100.00;100529.89;2003428;71;33400;-77
2022/04/11 22:29:01;;;;;;;22.50;20.83;;;;;;;14.55;100.00;100490.28;1976226;70;32937;-77
2022/04/11 22:34:45;;;;;;;20.90;19.50;;;;;;;14.71;100.00;100530.67;2016593;71;32834;-79
2022/04/11 22:40:31;;;;;;;20.73;19.23;;;;;;;14.64;100.00;100536.45;2018442;71;33353;-75
2022/04/11 22:46:25;;;;;;;21.70;20.17;;;;;;;14.47;100.00;100523.20;1991410;71;32812;-75
2022/04/11 22:52:10;;;;;;;22.53;20.67;;;;;;;14.38;100.00;100527.33;2015023;71;32837;-77
2022/04/11 22:57:55;;;;;;;23.30;21.70;;;;;;;14.17;100.00;100526.73;1954971;71;33033;-80
2022/04/11 23:03:52;;;;;;;23.40;21.80;;;;;;;14.03;100.00;100529.00;2013520;71;32954;-80
2022/04/11 23:09:42;;;;;;;23.13;21.50;;;;;;;13.97;100.00;100530.28;2009054;71;32922;-82
2022/04/11 23:15:32;;;;;;;21.97;20.30;;;;;;;13.91;100.00;100537.69;2000623;70;32865;-80
2022/04/11 23:21:18;;;;;;;21.07;19.47;;;;;;;13.99;100.00;100538.36;2007598;71;33000;-76
2022/04/11 23:30:26;;;;;;;22.67;20.67;;;;;;;13.93;100.00;100531.23;2060908;69;32629;-80
2022/04/11 23:32:57;;;;;;;29.13;21.93;;;;;;;13.82;100.00;100536.81;1939243;73;26265;-75
2022/04/11 23:35:31;;;;;;;24.10;21.80;;;;;;;13.82;100.00;100539.59;1945474;73;26228;-81
2022/04/11 23:38:04;;;;;;;25.17;21.93;;;;;;;13.71;100.00;100539.56;1976783;72;26165;-76
2022/04/11 23:43:36;;;;;;;34.80;23.27;;;;;;;13.78;100.00;100541.37;1960509;72;26750;-80
2022/04/11 23:46:07;;;;;;;33.33;23.10;;;;;;;13.75;100.00;100526.62;1934777;73;26208;-76
2022/04/11 23:48:37;;;;;;;25.87;21.47;;;;;;;13.67;100.00;100526.23;1943776;73;26669;-80
2022/04/11 23:51:14;;;;;;;22.40;20.50;;;;;;;13.75;100.00;100524.66;1937235;73;26229;-76
